»·PEaware :: ASA542 KSEA-KSMF

ASA542 :: KSEA-KSMF

FLIGHT INFORMATION

Flight Status: Arrived
Operator:
Alaska Airlines
More flights by this operator :: More flights under this callsign
Pilot: Andre N. (13929)
Aircraft: AIRBUS A320
(A320)
More flights by this aircraft type
Origin: KSEA Seattle-Tacoma Intl
United States
Destination: KSMF Sacramento Intl
United States
More flights between these airports :: More routes between these airports
Route: SUMMA1 SUMMA JINMO LMT TUDOR2
File this flight plan on PilotEdge
Remarks:
Altitude:
(Current/Filed)
39,000ft
Speed:
(Current/Filed)
450kts
Departed: 28-Feb-18 10:13 AM
Arrived: 28-Feb-18 11:38 AM
Distance/Time
Traveled:
526nm/1:25
Distance/Time
To Go:
Arrived

Flight Plot

Page will automatically refresh every two minutes.

Flight plan parsing failed; only flown route is shown


Map Options




Map Legend


Flown Route
Filed Route
Departure Airport
Arrival Airport
Navaid (VOR, NDB)
Fix

Horizontal Profiles

Position Reports

Time Latitude Longitude Heading Altitude Ground
Speed
28-Feb-18 09:55 47.448199 -122.303130 28 442ft 0kts
28-Feb-18 09:56 47.448199 -122.303130 28 442ft 0kts
28-Feb-18 09:57 47.448199 -122.303130 28 442ft 0kts
28-Feb-18 09:58 47.448199 -122.303130 28 442ft 0kts
28-Feb-18 09:59 47.448199 -122.303130 28 442ft 0kts
28-Feb-18 10:00 47.448199 -122.303130 28 442ft 0kts
28-Feb-18 10:01 47.448199 -122.303130 28 442ft 0kts
28-Feb-18 10:02 47.448199 -122.303130 28 442ft 0kts
28-Feb-18 10:03 47.448199 -122.303130 28 442ft 0kts
28-Feb-18 10:04 47.448199 -122.303130 28 442ft 0kts
28-Feb-18 10:05 47.448199 -122.303130 28 442ft 0kts
28-Feb-18 10:06 47.448199 -122.303130 28 442ft 0kts
28-Feb-18 10:07 47.448199 -122.303130 28 442ft 0kts
28-Feb-18 10:08 47.447973 -122.303304 29 442ft 2kts
28-Feb-18 10:09 47.447455 -122.303447 340 442ft 2kts
28-Feb-18 10:10 47.447172 -122.303116 304 442ft 0kts
28-Feb-18 10:11 47.447172 -122.303117 304 442ft 0kts
28-Feb-18 10:12 47.447172 -122.303117 304 442ft 0kts
28-Feb-18 10:13 47.447493 -122.303797 305 442ft 8kts
28-Feb-18 10:14 47.449684 -122.306275 1 442ft 14kts
28-Feb-18 10:15 47.454824 -122.306214 0 442ft 22kts
28-Feb-18 10:16 47.461542 -122.306136 1 442ft 24kts
28-Feb-18 10:17 47.463657 -122.306341 315 442ft 0kts
28-Feb-18 10:18 47.463657 -122.306341 315 442ft 0kts
28-Feb-18 10:19 47.463671 -122.306363 314 442ft 1kts
28-Feb-18 10:20 47.455073 -122.307720 178 456ft 142kts
28-Feb-18 10:21 47.407673 -122.311823 178 3576ft 205kts
28-Feb-18 10:22 47.341543 -122.311187 178 6754ft 263kts
28-Feb-18 10:23 47.270127 -122.310000 179 9288ft 264kts
28-Feb-18 10:24 47.208408 -122.277678 147 11590ft 308kts
28-Feb-18 10:25 47.144044 -122.205954 154 14375ft 323kts
28-Feb-18 10:26 47.066438 -122.171817 169 16340ft 329kts
28-Feb-18 10:27 46.978393 -122.135881 170 18906ft 345kts
28-Feb-18 10:28 46.885763 -122.097859 171 21134ft 363kts
28-Feb-18 10:29 46.798485 -122.062069 171 22837ft 372kts
28-Feb-18 10:30 46.703657 -122.023328 171 24292ft 386kts
28-Feb-18 10:31 46.600341 -121.999751 201 26042ft 374kts
28-Feb-18 10:32 46.503824 -122.052074 207 27722ft 380kts
28-Feb-18 10:33 46.404317 -122.107159 208 29240ft 391kts
28-Feb-18 10:34 46.293137 -122.117736 184 30534ft 427kts
28-Feb-18 10:35 46.174839 -122.105504 184 31753ft 437kts
28-Feb-18 10:36 46.053881 -122.093327 184 32788ft 447kts
28-Feb-18 10:37 45.931111 -122.081037 184 33722ft 455kts
28-Feb-18 10:38 45.816470 -122.069560 184 34878ft 453kts
28-Feb-18 10:39 45.698134 -122.057810 184 35976ft 451kts
28-Feb-18 10:40 45.575328 -122.045692 184 36965ft 450kts
28-Feb-18 10:41 45.460326 -122.034390 184 37755ft 450kts
28-Feb-18 10:42 45.337485 -122.022358 184 38531ft 450kts
28-Feb-18 10:43 45.214765 -122.010405 184 39069ft 451kts
28-Feb-18 10:44 45.092471 -121.998520 184 39091ft 450kts
28-Feb-18 10:45 44.968324 -121.986560 185 39090ft 456kts
28-Feb-18 10:46 44.846968 -121.974874 185 39113ft 460kts
28-Feb-18 10:47 44.723121 -121.962986 185 39115ft 461kts
28-Feb-18 10:48 44.596260 -121.950867 185 39089ft 460kts
28-Feb-18 10:49 44.470051 -121.938873 185 39064ft 459kts
28-Feb-18 10:50 44.344614 -121.927008 185 39061ft 458kts
28-Feb-18 10:51 44.218697 -121.915139 185 39058ft 457kts
28-Feb-18 10:52 44.092953 -121.903346 185 39055ft 456kts
28-Feb-18 10:53 43.967061 -121.891592 185 39054ft 456kts
28-Feb-18 10:54 43.845895 -121.880325 185 39061ft 456kts
28-Feb-18 10:55 43.721686 -121.868819 185 39066ft 456kts
28-Feb-18 10:56 43.595583 -121.857186 185 39070ft 456kts
28-Feb-18 10:57 43.470297 -121.845677 185 39070ft 456kts
28-Feb-18 10:58 43.345156 -121.834232 185 39073ft 456kts
28-Feb-18 10:59 43.219857 -121.822834 185 39113ft 456kts
28-Feb-18 11:00 43.094576 -121.811463 185 39140ft 456kts
28-Feb-18 11:01 42.968574 -121.800085 184 39139ft 457kts
28-Feb-18 11:02 42.845765 -121.789045 184 39120ft 459kts
28-Feb-18 11:03 42.720839 -121.777852 184 39139ft 462kts
28-Feb-18 11:04 42.593091 -121.766446 184 39157ft 463kts
28-Feb-18 11:05 42.465525 -121.755101 184 39166ft 464kts
28-Feb-18 11:06 42.338356 -121.743838 184 39161ft 463kts
28-Feb-18 11:07 42.211586 -121.732661 184 39149ft 463kts
28-Feb-18 11:08 42.085057 -121.727209 188 39143ft 458kts
28-Feb-18 11:09 41.958706 -121.726597 188 39141ft 458kts
28-Feb-18 11:10 41.838095 -121.726017 188 39144ft 457kts
28-Feb-18 11:11 41.722662 -121.725469 188 39137ft 457kts
28-Feb-18 11:12 41.596760 -121.724873 188 39147ft 457kts
28-Feb-18 11:13 41.491151 -121.724377 188 39148ft 457kts
28-Feb-18 11:14 41.344054 -121.723686 188 39153ft 458kts
28-Feb-18 11:15 41.238302 -121.723190 188 39185ft 458kts
28-Feb-18 11:16 41.111958 -121.722601 188 39300ft 458kts
28-Feb-18 11:17 40.965286 -121.721910 186 37673ft 460kts
28-Feb-18 11:18 40.866276 -121.721456 186 35717ft 461kts
28-Feb-18 11:19 40.749899 -121.720861 186 33971ft 447kts
28-Feb-18 11:20 40.634789 -121.720292 186 32341ft 431kts
28-Feb-18 11:21 40.518584 -121.719773 186 30536ft 417kts
28-Feb-18 11:22 40.405656 -121.716441 182 28721ft 406kts
28-Feb-18 11:23 40.295723 -121.707079 182 26893ft 393kts
28-Feb-18 11:24 40.189472 -121.697922 182 25084ft 381kts
28-Feb-18 11:25 40.086197 -121.689061 182 23280ft 369kts
28-Feb-18 11:26 39.987010 -121.680577 181 21507ft 358kts
28-Feb-18 11:27 39.892382 -121.672503 181 19780ft 347kts
28-Feb-18 11:28 39.802773 -121.664875 181 18123ft 337kts
28-Feb-18 11:29 39.715459 -121.657463 181 16478ft 328kts
28-Feb-18 11:30 39.626415 -121.649934 180 14782ft 319kts
28-Feb-18 11:31 39.539351 -121.642592 180 13113ft 311kts
28-Feb-18 11:32 39.453847 -121.635414 179 11212ft 315kts
28-Feb-18 11:33 39.372080 -121.628451 180 10503ft 281kts
28-Feb-18 11:34 39.294775 -121.622011 179 9783ft 277kts
28-Feb-18 11:35 39.222343 -121.615974 179 8945ft 272kts
28-Feb-18 11:36 39.147782 -121.609786 178 8023ft 267kts
28-Feb-18 11:37 39.074920 -121.603739 178 7061ft 256kts
28-Feb-18 11:38 39.007149 -121.598100 177 5777ft 235kts
28-Feb-18 11:39 38.943729 -121.593831 182 4106ft 216kts
28-Feb-18 11:40 38.887358 -121.596478 181 3642ft 227kts
28-Feb-18 11:41 38.825429 -121.600499 181 2295ft 222kts
28-Feb-18 11:42 38.773262 -121.600116 179 1406ft 182kts
28-Feb-18 11:43 38.729813 -121.600788 179 525ft 129kts
28-Feb-18 11:44 38.697886 -121.601236 179 32ft 73kts
28-Feb-18 11:45 38.690585 -121.600356 92 32ft 6kts
28-Feb-18 11:46 38.690611 -121.599147 80 32ft 4kts
28-Feb-18 11:47 38.693285 -121.598717 3 32ft 16kts
28-Feb-18 11:48 38.695433 -121.596007 2 32ft 14kts
28-Feb-18 11:49 38.696722 -121.594601 175 32ft 4kts
28-Feb-18 11:50 38.696264 -121.594601 180 32ft 0kts

Navigation Log

Ident Type
Flight plan parsing failed, navigation log unavailable